Gillette Campbell County Airport
KGCC : now visible

Airfield :











YOU CAN JOIN US ON...

 
LOGIN :

Register | Disclaimer

   EN    FR    IT 

 









Legend :    VFR   Marginal VFR   IFR   Intensive IFR   Very Intensive IFR
Visi :
Ceiling :
>= 8 km
>= 3000ft
5 to 8 km
1000 to 3000 ft
1500m to 5 km
500 to 1000 ft
800 to 1500m
200 to 500 ft
< 800m
< 200 ft
Symbols :   Thunderstorms  Fog  Heavy snow  Heavy precipitations  Wind > 20 kt






- Airport Elevation : 4365 ft


KGCC - Gillette Campbell County

CURRENT METAR :
  • 031953Z AUTO 16009KT 10SM CLR 32/11 A2986 RMK AO2 SLP054 T03170106 $

EXPIRED METARs :
  • 031853Z AUTO 11004KT 10SM CLR 31/12 A2988 RMK AO2 SLP064 T03110122 $
  • 030453Z AUTO 18008KT 10SM CLR 16/11 A2999 RMK AO2 SLP111 T01610111
  • 031753Z AUTO 10004G15KT 10SM CLR 29/14 A2990 RMK AO2 SLP072 T02940139 10300 20133 58012 $

TAF KGCC
Valid from the 03 at 18:00 until the 04 at 18:00 UTC


031720Z 0318/0418 15014KT P6SM SCT150
FM040600 30011KT P6SM SCT250
KZDV FIR / North America



MET'MAP, your aeronautical weather chart ! - Copyright ORBIFLY December 2007 - Disclaimer

ORBIFLY MET'MAP TEAM :

Programming & Development : Alexandra Zaïnal
Original concept : Baudouin d'Aumeries
Technical & hardware support : Manuel Goepfert
Assistance : Marc-Olivier Méhu




SOURCES & CREDITS :

   NOAA       Earth
Advisory